sensor_id;sensor_type;location;lat;lon;timestamp;pressure;altitude;pressure_sealevel;temperature;humidity
68077;BME280;54866;53.458;14.540;2022-08-20T00:00:54;100363.35;;;19.47;95.43
68077;BME280;54866;53.458;14.540;2022-08-20T00:03:26;100363.27;;;19.49;95.33
68077;BME280;54866;53.458;14.540;2022-08-20T00:06:00;100368.52;;;19.49;95.36
68077;BME280;54866;53.458;14.540;2022-08-20T00:08:31;100372.10;;;19.48;95.38
68077;BME280;54866;53.458;14.540;2022-08-20T00:11:03;100372.54;;;19.51;95.16
68077;BME280;54866;53.458;14.540;2022-08-20T00:13:33;100368.61;;;19.52;95.15
68077;BME280;54866;53.458;14.540;2022-08-20T00:16:05;100365.52;;;19.54;94.92
68077;BME280;54866;53.458;14.540;2022-08-20T00:18:35;100361.23;;;19.56;94.64
68077;BME280;54866;53.458;14.540;2022-08-20T00:21:08;100355.02;;;19.55;94.56
68077;BME280;54866;53.458;14.540;2022-08-20T00:23:39;100353.15;;;19.57;94.37
68077;BME280;54866;53.458;14.540;2022-08-20T00:26:10;100350.50;;;19.57;94.15
68077;BME280;54866;53.458;14.540;2022-08-20T00:28:41;100348.32;;;19.57;94.03
68077;BME280;54866;53.458;14.540;2022-08-20T00:31:18;100344.66;;;19.58;93.96
68077;BME280;54866;53.458;14.540;2022-08-20T00:33:49;100350.14;;;19.57;93.86
68077;BME280;54866;53.458;14.540;2022-08-20T00:36:20;100350.25;;;19.56;93.66
68077;BME280;54866;53.458;14.540;2022-08-20T00:38:51;100349.25;;;19.56;93.72
68077;BME280;54866;53.458;14.540;2022-08-20T00:41:24;100356.33;;;19.55;93.53
68077;BME280;54866;53.458;14.540;2022-08-20T00:44:07;100361.48;;;19.55;93.46
68077;BME280;54866;53.458;14.540;2022-08-20T00:46:40;100359.60;;;19.56;93.49
68077;BME280;54866;53.458;14.540;2022-08-20T00:49:16;100359.14;;;19.55;93.46
68077;BME280;54866;53.458;14.540;2022-08-20T00:51:52;100357.27;;;19.54;93.60
68077;BME280;54866;53.458;14.540;2022-08-20T00:54:26;100352.29;;;19.54;93.48
68077;BME280;54866;53.458;14.540;2022-08-20T00:56:59;100350.36;;;19.55;93.58
68077;BME280;54866;53.458;14.540;2022-08-20T00:59:34;100348.40;;;19.57;93.51
68077;BME280;54866;53.458;14.540;2022-08-20T01:02:06;100349.32;;;19.58;93.35
68077;BME280;54866;53.458;14.540;2022-08-20T01:04:39;100346.19;;;19.59;93.44
68077;BME280;54866;53.458;14.540;2022-08-20T01:07:11;100347.48;;;19.60;93.37
68077;BME280;54866;53.458;14.540;2022-08-20T01:09:42;100350.36;;;19.60;93.33
68077;BME280;54866;53.458;14.540;2022-08-20T01:12:14;100354.32;;;19.60;93.26
68077;BME280;54866;53.458;14.540;2022-08-20T01:14:45;100354.25;;;19.58;93.10
68077;BME280;54866;53.458;14.540;2022-08-20T01:17:19;100357.30;;;19.61;93.21
68077;BME280;54866;53.458;14.540;2022-08-20T01:19:56;100358.04;;;19.62;93.14
68077;BME280;54866;53.458;14.540;2022-08-20T01:22:29;100357.13;;;19.60;92.96
68077;BME280;54866;53.458;14.540;2022-08-20T01:25:24;100357.41;;;19.60;93.04
68077;BME280;54866;53.458;14.540;2022-08-20T01:27:57;100356.80;;;19.57;92.96
68077;BME280;54866;53.458;14.540;2022-08-20T01:30:29;100354.27;;;19.56;92.95
68077;BME280;54866;53.458;14.540;2022-08-20T01:33:00;100354.89;;;19.53;93.01
68077;BME280;54866;53.458;14.540;2022-08-20T01:35:31;100356.16;;;19.50;93.19
68077;BME280;54866;53.458;14.540;2022-08-20T01:38:04;100361.71;;;19.49;93.39
68077;BME280;54866;53.458;14.540;2022-08-20T01:40:51;100367.23;;;19.48;93.57
68077;BME280;54866;53.458;14.540;2022-08-20T01:43:25;100370.52;;;19.47;93.72
68077;BME280;54866;53.458;14.540;2022-08-20T01:45:56;100368.88;;;19.47;93.62
68077;BME280;54866;53.458;14.540;2022-08-20T01:48:28;100367.80;;;19.47;93.89
68077;BME280;54866;53.458;14.540;2022-08-20T01:51:03;100369.64;;;19.47;93.94
68077;BME280;54866;53.458;14.540;2022-08-20T01:53:36;100374.52;;;19.48;94.10
68077;BME280;54866;53.458;14.540;2022-08-20T01:56:08;100375.04;;;19.46;93.97
68077;BME280;54866;53.458;14.540;2022-08-20T01:58:40;100377.86;;;19.47;93.85
68077;BME280;54866;53.458;14.540;2022-08-20T02:01:20;100379.53;;;19.46;94.08
68077;BME280;54866;53.458;14.540;2022-08-20T02:03:51;100384.44;;;19.44;94.13
68077;BME280;54866;53.458;14.540;2022-08-20T02:06:23;100389.94;;;19.43;94.18
68077;BME280;54866;53.458;14.540;2022-08-20T02:08:56;100393.16;;;19.43;94.31
68077;BME280;54866;53.458;14.540;2022-08-20T02:11:29;100393.52;;;19.43;94.38
68077;BME280;54866;53.458;14.540;2022-08-20T02:14:00;100392.52;;;19.42;94.34
68077;BME280;54866;53.458;14.540;2022-08-20T02:16:32;100387.27;;;19.41;94.44
68077;BME280;54866;53.458;14.540;2022-08-20T02:19:08;100390.21;;;19.42;94.50
68077;BME280;54866;53.458;14.540;2022-08-20T02:21:42;100392.75;;;19.43;94.77
68077;BME280;54866;53.458;14.540;2022-08-20T02:24:13;100396.77;;;19.44;94.67
68077;BME280;54866;53.458;14.540;2022-08-20T02:26:44;100387.94;;;19.43;94.72
68077;BME280;54866;53.458;14.540;2022-08-20T02:29:15;100389.97;;;19.43;94.84
68077;BME280;54866;53.458;14.540;2022-08-20T02:31:46;100389.82;;;19.42;94.95
68077;BME280;54866;53.458;14.540;2022-08-20T02:34:16;100387.60;;;19.41;95.05
68077;BME280;54866;53.458;14.540;2022-08-20T02:36:46;100387.94;;;19.42;95.06
68077;BME280;54866;53.458;14.540;2022-08-20T02:39:17;100391.41;;;19.42;95.06
68077;BME280;54866;53.458;14.540;2022-08-20T02:41:48;100384.75;;;19.43;94.95
68077;BME280;54866;53.458;14.540;2022-08-20T02:44:18;100387.86;;;19.42;95.13
68077;BME280;54866;53.458;14.540;2022-08-20T02:46:50;100383.45;;;19.42;95.24
68077;BME280;54866;53.458;14.540;2022-08-20T02:49:20;100374.77;;;19.41;95.44
68077;BME280;54866;53.458;14.540;2022-08-20T02:51:50;100377.27;;;19.43;95.36
68077;BME280;54866;53.458;14.540;2022-08-20T02:54:21;100376.80;;;19.42;95.32
68077;BME280;54866;53.458;14.540;2022-08-20T02:56:52;100383.60;;;19.41;95.62
68077;BME280;54866;53.458;14.540;2022-08-20T02:59:22;100385.73;;;19.39;96.04
68077;BME280;54866;53.458;14.540;2022-08-20T03:01:52;100383.05;;;19.39;96.15
68077;BME280;54866;53.458;14.540;2022-08-20T03:04:22;100376.02;;;19.38;96.17
68077;BME280;54866;53.458;14.540;2022-08-20T03:06:53;100374.71;;;19.39;96.31
68077;BME280;54866;53.458;14.540;2022-08-20T03:09:24;100372.61;;;19.39;96.27
68077;BME280;54866;53.458;14.540;2022-08-20T03:11:54;100376.52;;;19.38;96.38
68077;BME280;54866;53.458;14.540;2022-08-20T03:14:25;100372.84;;;19.38;96.66
68077;BME280;54866;53.458;14.540;2022-08-20T03:16:55;100370.96;;;19.39;96.91
68077;BME280;54866;53.458;14.540;2022-08-20T03:19:26;100367.17;;;19.39;97.18
68077;BME280;54866;53.458;14.540;2022-08-20T03:21:57;100359.19;;;19.37;96.94
68077;BME280;54866;53.458;14.540;2022-08-20T03:24:28;100358.70;;;19.38;96.89
68077;BME280;54866;53.458;14.540;2022-08-20T03:26:59;100356.52;;;19.37;97.30
68077;BME280;54866;53.458;14.540;2022-08-20T03:29:29;100352.61;;;19.35;97.02
68077;BME280;54866;53.458;14.540;2022-08-20T03:32:00;100349.84;;;19.35;97.14
68077;BME280;54866;53.458;14.540;2022-08-20T03:34:30;100342.79;;;19.34;97.03
68077;BME280;54866;53.458;14.540;2022-08-20T03:37:01;100334.98;;;19.34;97.23
68077;BME280;54866;53.458;14.540;2022-08-20T03:39:31;100334.66;;;19.34;97.17
68077;BME280;54866;53.458;14.540;2022-08-20T03:42:02;100336.70;;;19.33;97.02
68077;BME280;54866;53.458;14.540;2022-08-20T03:44:33;100338.31;;;19.33;97.14
68077;BME280;54866;53.458;14.540;2022-08-20T03:47:05;100339.31;;;19.33;97.23
68077;BME280;54866;53.458;14.540;2022-08-20T03:49:37;100343.33;;;19.34;97.03
68077;BME280;54866;53.458;14.540;2022-08-20T03:52:07;100343.05;;;19.35;96.90
68077;BME280;54866;53.458;14.540;2022-08-20T03:54:38;100337.65;;;19.35;96.94
68077;BME280;54866;53.458;14.540;2022-08-20T03:57:13;100334.54;;;19.37;97.08
68077;BME280;54866;53.458;14.540;2022-08-20T03:59:44;100331.00;;;19.38;97.10
68077;BME280;54866;53.458;14.540;2022-08-20T04:02:14;100338.92;;;19.38;97.06
68077;BME280;54866;53.458;14.540;2022-08-20T04:04:45;100343.81;;;19.37;97.09
68077;BME280;54866;53.458;14.540;2022-08-20T04:07:17;100350.23;;;19.39;97.09
68077;BME280;54866;53.458;14.540;2022-08-20T04:09:53;100354.36;;;19.40;96.96
68077;BME280;54866;53.458;14.540;2022-08-20T04:12:25;100360.92;;;19.41;96.92
68077;BME280;54866;53.458;14.540;2022-08-20T04:14:55;100363.31;;;19.40;97.05
68077;BME280;54866;53.458;14.540;2022-08-20T04:17:26;100368.39;;;19.41;96.96
68077;BME280;54866;53.458;14.540;2022-08-20T04:19:56;100366.08;;;19.41;97.09
68077;BME280;54866;53.458;14.540;2022-08-20T04:22:28;100362.23;;;19.40;96.96
68077;BME280;54866;53.458;14.540;2022-08-20T04:24:58;100362.52;;;19.39;97.01
68077;BME280;54866;53.458;14.540;2022-08-20T04:27:28;100364.62;;;19.42;97.38
68077;BME280;54866;53.458;14.540;2022-08-20T04:30:00;100367.52;;;19.45;97.29
68077;BME280;54866;53.458;14.540;2022-08-20T04:32:31;100374.17;;;19.46;97.11
68077;BME280;54866;53.458;14.540;2022-08-20T04:35:05;100379.87;;;19.46;97.08
68077;BME280;54866;53.458;14.540;2022-08-20T04:37:36;100386.19;;;19.47;97.26
68077;BME280;54866;53.458;14.540;2022-08-20T04:40:11;100389.42;;;19.49;96.82
68077;BME280;54866;53.458;14.540;2022-08-20T04:43:05;100393.06;;;19.49;96.75
68077;BME280;54866;53.458;14.540;2022-08-20T04:45:35;100393.04;;;19.51;96.70
68077;BME280;54866;53.458;14.540;2022-08-20T04:48:06;100394.33;;;19.52;96.61
68077;BME280;54866;53.458;14.540;2022-08-20T04:50:38;100391.17;;;19.50;96.43
68077;BME280;54866;53.458;14.540;2022-08-20T04:53:10;100399.84;;;19.51;96.24
68077;BME280;54866;53.458;14.540;2022-08-20T04:55:41;100398.10;;;19.51;96.20
68077;BME280;54866;53.458;14.540;2022-08-20T04:58:13;100395.00;;;19.53;96.37
68077;BME280;54866;53.458;14.540;2022-08-20T05:00:47;100393.66;;;19.52;96.04
68077;BME280;54866;53.458;14.540;2022-08-20T05:03:18;100396.44;;;19.53;95.96
68077;BME280;54866;53.458;14.540;2022-08-20T05:05:49;100394.55;;;19.53;95.95
68077;BME280;54866;53.458;14.540;2022-08-20T05:08:20;100396.38;;;19.55;95.91
68077;BME280;54866;53.458;14.540;2022-08-20T05:10:54;100398.50;;;19.53;95.74
68077;BME280;54866;53.458;14.540;2022-08-20T05:13:26;100399.80;;;19.56;95.59
68077;BME280;54866;53.458;14.540;2022-08-20T05:15:57;100403.32;;;19.56;95.46
68077;BME280;54866;53.458;14.540;2022-08-20T05:18:27;100409.86;;;19.55;95.49
68077;BME280;54866;53.458;14.540;2022-08-20T05:21:01;100406.89;;;19.55;95.50
68077;BME280;54866;53.458;14.540;2022-08-20T05:23:37;100402.51;;;19.54;95.42
68077;BME280;54866;53.458;14.540;2022-08-20T05:26:11;100396.67;;;19.55;95.42
68077;BME280;54866;53.458;14.540;2022-08-20T05:28:44;100396.18;;;19.56;95.30
68077;BME280;54866;53.458;14.540;2022-08-20T05:31:14;100399.83;;;19.57;95.20
68077;BME280;54866;53.458;14.540;2022-08-20T05:33:44;100391.30;;;19.58;95.25
68077;BME280;54866;53.458;14.540;2022-08-20T05:36:18;100388.96;;;19.60;95.15
68077;BME280;54866;53.458;14.540;2022-08-20T05:38:49;100393.83;;;19.64;94.99
68077;BME280;54866;53.458;14.540;2022-08-20T05:41:19;100391.68;;;19.64;94.81
68077;BME280;54866;53.458;14.540;2022-08-20T05:43:50;100395.44;;;19.67;94.73
68077;BME280;54866;53.458;14.540;2022-08-20T05:46:20;100401.38;;;19.68;94.70
68077;BME280;54866;53.458;14.540;2022-08-20T05:48:51;100400.83;;;19.70;94.64
68077;BME280;54866;53.458;14.540;2022-08-20T05:51:21;100399.55;;;19.70;94.28
68077;BME280;54866;53.458;14.540;2022-08-20T05:53:52;100405.22;;;19.72;94.22
68077;BME280;54866;53.458;14.540;2022-08-20T05:56:22;100404.79;;;19.70;94.21
68077;BME280;54866;53.458;14.540;2022-08-20T05:58:52;100408.30;;;19.70;94.12
68077;BME280;54866;53.458;14.540;2022-08-20T06:01:22;100419.06;;;19.70;94.14
68077;BME280;54866;53.458;14.540;2022-08-20T06:03:53;100415.27;;;19.70;94.04
68077;BME280;54866;53.458;14.540;2022-08-20T06:06:40;100420.55;;;19.70;93.96
68077;BME280;54866;53.458;14.540;2022-08-20T06:09:11;100421.08;;;19.69;93.79
68077;BME280;54866;53.458;14.540;2022-08-20T06:11:41;100421.70;;;19.70;93.64
68077;BME280;54866;53.458;14.540;2022-08-20T06:14:12;100422.02;;;19.72;93.42
68077;BME280;54866;53.458;14.540;2022-08-20T06:16:43;100425.46;;;19.74;93.31
68077;BME280;54866;53.458;14.540;2022-08-20T06:19:14;100422.75;;;19.78;93.14
68077;BME280;54866;53.458;14.540;2022-08-20T06:21:44;100418.98;;;19.82;93.05
68077;BME280;54866;53.458;14.540;2022-08-20T06:24:14;100418.72;;;19.84;92.74
68077;BME280;54866;53.458;14.540;2022-08-20T06:26:44;100421.97;;;19.87;92.68
68077;BME280;54866;53.458;14.540;2022-08-20T06:29:16;100413.14;;;19.91;92.41
68077;BME280;54866;53.458;14.540;2022-08-20T06:31:47;100419.05;;;19.92;92.09
68077;BME280;54866;53.458;14.540;2022-08-20T06:34:18;100419.26;;;19.92;91.86
68077;BME280;54866;53.458;14.540;2022-08-20T06:36:48;100424.45;;;19.92;91.55
68077;BME280;54866;53.458;14.540;2022-08-20T06:39:18;100419.53;;;19.91;91.48
68077;BME280;54866;53.458;14.540;2022-08-20T06:41:48;100428.67;;;19.92;91.13
68077;BME280;54866;53.458;14.540;2022-08-20T06:44:19;100429.54;;;19.93;91.13
68077;BME280;54866;53.458;14.540;2022-08-20T06:46:49;100423.81;;;19.94;90.94
68077;BME280;54866;53.458;14.540;2022-08-20T06:49:19;100423.85;;;19.95;90.73
68077;BME280;54866;53.458;14.540;2022-08-20T06:51:50;100424.39;;;19.98;90.74
68077;BME280;54866;53.458;14.540;2022-08-20T06:54:20;100430.63;;;20.02;90.48
68077;BME280;54866;53.458;14.540;2022-08-20T06:56:51;100430.54;;;20.06;90.35
68077;BME280;54866;53.458;14.540;2022-08-20T06:59:22;100431.22;;;20.08;90.24
68077;BME280;54866;53.458;14.540;2022-08-20T07:01:52;100429.48;;;20.07;90.20
68077;BME280;54866;53.458;14.540;2022-08-20T07:04:24;100431.85;;;20.08;90.12
68077;BME280;54866;53.458;14.540;2022-08-20T07:06:56;100433.01;;;20.09;90.19
68077;BME280;54866;53.458;14.540;2022-08-20T07:09:27;100438.62;;;20.09;90.41
68077;BME280;54866;53.458;14.540;2022-08-20T07:11:57;100434.98;;;20.05;90.41
68077;BME280;54866;53.458;14.540;2022-08-20T07:14:28;100440.91;;;20.06;90.48
68077;BME280;54866;53.458;14.540;2022-08-20T07:17:00;100447.59;;;20.06;90.61
68077;BME280;54866;53.458;14.540;2022-08-20T07:19:31;100447.95;;;20.06;90.82
68077;BME280;54866;53.458;14.540;2022-08-20T07:22:03;100452.06;;;20.04;90.84
68077;BME280;54866;53.458;14.540;2022-08-20T07:24:33;100449.83;;;20.03;90.93
68077;BME280;54866;53.458;14.540;2022-08-20T07:27:03;100449.11;;;20.02;91.12
68077;BME280;54866;53.458;14.540;2022-08-20T07:29:34;100455.76;;;20.02;91.29
68077;BME280;54866;53.458;14.540;2022-08-20T07:32:18;100452.42;;;20.03;91.35
68077;BME280;54866;53.458;14.540;2022-08-20T07:35:07;100453.45;;;20.03;91.30
68077;BME280;54866;53.458;14.540;2022-08-20T07:37:40;100455.33;;;20.04;91.30
68077;BME280;54866;53.458;14.540;2022-08-20T07:40:14;100461.09;;;20.06;91.10
68077;BME280;54866;53.458;14.540;2022-08-20T07:42:44;100463.64;;;20.10;91.14
68077;BME280;54866;53.458;14.540;2022-08-20T07:45:16;100462.54;;;20.19;91.20
68077;BME280;54866;53.458;14.540;2022-08-20T07:47:47;100463.23;;;20.30;90.91
68077;BME280;54866;53.458;14.540;2022-08-20T07:50:20;100463.45;;;20.41;90.79
68077;BME280;54866;53.458;14.540;2022-08-20T07:52:51;100460.19;;;20.46;90.52
68077;BME280;54866;53.458;14.540;2022-08-20T07:55:22;100458.66;;;20.46;90.12
68077;BME280;54866;53.458;14.540;2022-08-20T07:57:52;100464.32;;;20.47;90.04
68077;BME280;54866;53.458;14.540;2022-08-20T08:00:23;100463.76;;;20.47;89.94
68077;BME280;54866;53.458;14.540;2022-08-20T08:02:54;100466.08;;;20.46;89.80
68077;BME280;54866;53.458;14.540;2022-08-20T08:05:24;100471.56;;;20.43;89.60
68077;BME280;54866;53.458;14.540;2022-08-20T08:07:55;100476.72;;;20.41;89.51
68077;BME280;54866;53.458;14.540;2022-08-20T08:10:25;100477.33;;;20.33;89.49
68077;BME280;54866;53.458;14.540;2022-08-20T08:12:59;100478.94;;;20.25;89.49
68077;BME280;54866;53.458;14.540;2022-08-20T08:15:33;100487.06;;;20.19;89.59
68077;BME280;54866;53.458;14.540;2022-08-20T08:18:10;100485.34;;;20.14;89.75
68077;BME280;54866;53.458;14.540;2022-08-20T08:20:44;100491.67;;;20.10;89.88
68077;BME280;54866;53.458;14.540;2022-08-20T08:23:14;100500.20;;;20.08;90.15
68077;BME280;54866;53.458;14.540;2022-08-20T08:25:45;100499.85;;;20.07;90.42
68077;BME280;54866;53.458;14.540;2022-08-20T08:28:15;100493.84;;;20.05;90.71
68077;BME280;54866;53.458;14.540;2022-08-20T08:30:47;100500.39;;;20.04;90.92
68077;BME280;54866;53.458;14.540;2022-08-20T08:33:21;100501.11;;;20.02;91.02
68077;BME280;54866;53.458;14.540;2022-08-20T08:36:02;100504.10;;;20.03;91.21
68077;BME280;54866;53.458;14.540;2022-08-20T08:38:34;100505.33;;;20.03;91.18
68077;BME280;54866;53.458;14.540;2022-08-20T08:41:20;100508.21;;;20.03;91.21
68077;BME280;54866;53.458;14.540;2022-08-20T08:43:55;100507.61;;;20.03;91.30
68077;BME280;54866;53.458;14.540;2022-08-20T08:46:28;100513.35;;;20.07;91.35
68077;BME280;54866;53.458;14.540;2022-08-20T08:48:59;100518.20;;;20.11;91.34
68077;BME280;54866;53.458;14.540;2022-08-20T08:51:34;100517.17;;;20.12;91.33
68077;BME280;54866;53.458;14.540;2022-08-20T08:54:07;100516.36;;;20.15;91.20
68077;BME280;54866;53.458;14.540;2022-08-20T08:56:41;100513.99;;;20.17;91.32
68077;BME280;54866;53.458;14.540;2022-08-20T08:59:12;100514.78;;;20.18;90.89
68077;BME280;54866;53.458;14.540;2022-08-20T09:01:45;100517.24;;;20.16;90.86
68077;BME280;54866;53.458;14.540;2022-08-20T09:04:18;100518.88;;;20.18;91.22
68077;BME280;54866;53.458;14.540;2022-08-20T09:06:52;100519.59;;;20.24;91.20
68077;BME280;54866;53.458;14.540;2022-08-20T09:09:24;100516.86;;;20.32;91.11
68077;BME280;54866;53.458;14.540;2022-08-20T09:12:00;100517.94;;;20.41;90.60
68077;BME280;54866;53.458;14.540;2022-08-20T09:14:31;100516.22;;;20.50;90.02
68077;BME280;54866;53.458;14.540;2022-08-20T09:17:02;100520.23;;;20.55;89.72
68077;BME280;54866;53.458;14.540;2022-08-20T09:19:33;100521.37;;;20.58;89.57
68077;BME280;54866;53.458;14.540;2022-08-20T09:22:11;100521.15;;;20.56;89.53
68077;BME280;54866;53.458;14.540;2022-08-20T09:24:43;100520.95;;;20.54;89.66
68077;BME280;54866;53.458;14.540;2022-08-20T09:27:14;100520.34;;;20.50;89.64
68077;BME280;54866;53.458;14.540;2022-08-20T09:29:45;100520.89;;;20.50;89.82
68077;BME280;54866;53.458;14.540;2022-08-20T09:32:18;100525.88;;;20.50;89.90
68077;BME280;54866;53.458;14.540;2022-08-20T09:34:51;100530.45;;;20.53;89.96
68077;BME280;54866;53.458;14.540;2022-08-20T09:37:25;100527.73;;;20.54;90.25
68077;BME280;54866;53.458;14.540;2022-08-20T09:39:56;100526.23;;;20.52;90.08
68077;BME280;54866;53.458;14.540;2022-08-20T09:42:29;100526.39;;;20.49;90.00
68077;BME280;54866;53.458;14.540;2022-08-20T09:45:00;100528.98;;;20.45;90.04
68077;BME280;54866;53.458;14.540;2022-08-20T09:47:31;100531.66;;;20.45;90.33
68077;BME280;54866;53.458;14.540;2022-08-20T09:50:01;100535.27;;;20.46;90.42
68077;BME280;54866;53.458;14.540;2022-08-20T09:52:34;100535.79;;;20.50;90.37
68077;BME280;54866;53.458;14.540;2022-08-20T09:55:11;100540.41;;;20.50;90.28
68077;BME280;54866;53.458;14.540;2022-08-20T09:57:44;100542.84;;;20.52;90.43
68077;BME280;54866;53.458;14.540;2022-08-20T10:00:16;100541.48;;;20.54;90.65
68077;BME280;54866;53.458;14.540;2022-08-20T10:02:47;100542.05;;;20.57;90.64
68077;BME280;54866;53.458;14.540;2022-08-20T10:05:17;100537.19;;;20.57;90.85
68077;BME280;54866;53.458;14.540;2022-08-20T10:07:48;100536.30;;;20.55;90.70
68077;BME280;54866;53.458;14.540;2022-08-20T10:10:19;100542.39;;;20.53;90.77
68077;BME280;54866;53.458;14.540;2022-08-20T10:12:50;100538.95;;;20.53;90.82
68077;BME280;54866;53.458;14.540;2022-08-20T10:15:20;100541.63;;;20.59;90.84
68077;BME280;54866;53.458;14.540;2022-08-20T10:17:50;100544.70;;;20.64;90.67
68077;BME280;54866;53.458;14.540;2022-08-20T10:20:21;100546.40;;;20.66;90.22
68077;BME280;54866;53.458;14.540;2022-08-20T10:22:51;100544.62;;;20.67;90.28
68077;BME280;54866;53.458;14.540;2022-08-20T10:25:22;100547.75;;;20.69;90.12
68077;BME280;54866;53.458;14.540;2022-08-20T10:27:52;100544.45;;;20.69;90.30
68077;BME280;54866;53.458;14.540;2022-08-20T10:30:24;100545.28;;;20.67;90.01
68077;BME280;54866;53.458;14.540;2022-08-20T10:32:54;100543.80;;;20.67;89.98
68077;BME280;54866;53.458;14.540;2022-08-20T10:35:24;100548.66;;;20.73;90.03
68077;BME280;54866;53.458;14.540;2022-08-20T10:37:54;100547.14;;;20.79;90.06
68077;BME280;54866;53.458;14.540;2022-08-20T10:40:25;100543.77;;;20.87;89.86
68077;BME280;54866;53.458;14.540;2022-08-20T10:42:55;100542.55;;;20.90;89.93
68077;BME280;54866;53.458;14.540;2022-08-20T10:45:25;100546.78;;;20.95;90.09
68077;BME280;54866;53.458;14.540;2022-08-20T10:47:59;100542.36;;;20.96;89.72
68077;BME280;54866;53.458;14.540;2022-08-20T10:50:30;100543.56;;;20.96;89.73
68077;BME280;54866;53.458;14.540;2022-08-20T10:53:00;100543.30;;;20.96;89.77
68077;BME280;54866;53.458;14.540;2022-08-20T10:55:31;100544.52;;;21.00;89.80
68077;BME280;54866;53.458;14.540;2022-08-20T10:58:03;100541.55;;;21.04;89.91
68077;BME280;54866;53.458;14.540;2022-08-20T11:00:35;100538.70;;;21.08;89.58
68077;BME280;54866;53.458;14.540;2022-08-20T11:03:05;100541.23;;;21.11;89.44
68077;BME280;54866;53.458;14.540;2022-08-20T11:05:36;100542.88;;;21.14;89.42
68077;BME280;54866;53.458;14.540;2022-08-20T11:08:06;100543.98;;;21.15;89.38
68077;BME280;54866;53.458;14.540;2022-08-20T11:10:36;100545.69;;;21.15;89.19
68077;BME280;54866;53.458;14.540;2022-08-20T11:13:08;100548.19;;;21.17;89.39
68077;BME280;54866;53.458;14.540;2022-08-20T11:15:41;100548.38;;;21.18;89.42
68077;BME280;54866;53.458;14.540;2022-08-20T11:18:14;100548.34;;;21.21;89.51
68077;BME280;54866;53.458;14.540;2022-08-20T11:20:44;100550.04;;;21.22;89.18
68077;BME280;54866;53.458;14.540;2022-08-20T11:23:15;100552.10;;;21.21;89.13
68077;BME280;54866;53.458;14.540;2022-08-20T11:25:46;100557.15;;;21.18;89.07
68077;BME280;54866;53.458;14.540;2022-08-20T11:28:17;100559.83;;;21.14;89.22
68077;BME280;54866;53.458;14.540;2022-08-20T11:30:47;100559.73;;;21.13;89.34
68077;BME280;54866;53.458;14.540;2022-08-20T11:33:18;100560.36;;;21.14;89.32
68077;BME280;54866;53.458;14.540;2022-08-20T11:35:48;100564.19;;;21.16;89.35
68077;BME280;54866;53.458;14.540;2022-08-20T11:38:19;100563.82;;;21.16;89.05
68077;BME280;54866;53.458;14.540;2022-08-20T11:40:52;100565.07;;;21.19;89.09
68077;BME280;54866;53.458;14.540;2022-08-20T11:43:23;100562.13;;;21.23;89.19
68077;BME280;54866;53.458;14.540;2022-08-20T11:45:55;100557.85;;;21.24;89.17
68077;BME280;54866;53.458;14.540;2022-08-20T11:48:26;100551.17;;;21.26;88.94
68077;BME280;54866;53.458;14.540;2022-08-20T11:50:56;100547.97;;;21.30;88.87
68077;BME280;54866;53.458;14.540;2022-08-20T11:53:27;100548.62;;;21.36;88.85
68077;BME280;54866;53.458;14.540;2022-08-20T11:55:57;100551.92;;;21.40;88.54
68077;BME280;54866;53.458;14.540;2022-08-20T11:58:27;100555.70;;;21.41;88.52
68077;BME280;54866;53.458;14.540;2022-08-20T12:00:57;100558.62;;;21.45;88.32
68077;BME280;54866;53.458;14.540;2022-08-20T12:03:27;100559.21;;;21.46;88.01
68077;BME280;54866;53.458;14.540;2022-08-20T12:05:58;100558.48;;;21.49;88.02
68077;BME280;54866;53.458;14.540;2022-08-20T12:08:28;100560.01;;;21.53;87.98
68077;BME280;54866;53.458;14.540;2022-08-20T12:11:00;100560.08;;;21.52;87.59
68077;BME280;54866;53.458;14.540;2022-08-20T12:13:32;100561.10;;;21.53;87.68
68077;BME280;54866;53.458;14.540;2022-08-20T12:16:04;100562.59;;;21.57;87.78
68077;BME280;54866;53.458;14.540;2022-08-20T12:18:34;100561.73;;;21.63;87.60
68077;BME280;54866;53.458;14.540;2022-08-20T12:21:05;100564.45;;;21.67;87.72
68077;BME280;54866;53.458;14.540;2022-08-20T12:23:35;100571.05;;;21.68;87.64
68077;BME280;54866;53.458;14.540;2022-08-20T12:26:05;100575.65;;;21.72;87.57
68077;BME280;54866;53.458;14.540;2022-08-20T12:28:36;100577.61;;;21.75;87.44
68077;BME280;54866;53.458;14.540;2022-08-20T12:31:07;100580.63;;;21.74;87.15
68077;BME280;54866;53.458;14.540;2022-08-20T12:33:37;100581.86;;;21.74;87.38
68077;BME280;54866;53.458;14.540;2022-08-20T12:36:09;100579.05;;;21.72;87.21
68077;BME280;54866;53.458;14.540;2022-08-20T12:38:40;100581.71;;;21.68;87.04
68077;BME280;54866;53.458;14.540;2022-08-20T12:41:10;100579.21;;;21.69;87.41
68077;BME280;54866;53.458;14.540;2022-08-20T12:43:42;100576.83;;;21.75;87.55
68077;BME280;54866;53.458;14.540;2022-08-20T12:46:13;100577.94;;;21.80;87.52
68077;BME280;54866;53.458;14.540;2022-08-20T12:48:43;100576.60;;;21.85;87.57
68077;BME280;54866;53.458;14.540;2022-08-20T12:51:13;100580.50;;;21.90;87.48
68077;BME280;54866;53.458;14.540;2022-08-20T12:53:44;100577.20;;;21.94;87.55
68077;BME280;54866;53.458;14.540;2022-08-20T12:56:14;100577.11;;;21.98;87.65
68077;BME280;54866;53.458;14.540;2022-08-20T12:58:44;100573.09;;;22.03;87.78
68077;BME280;54866;53.458;14.540;2022-08-20T13:01:14;100573.40;;;22.08;87.68
68077;BME280;54866;53.458;14.540;2022-08-20T13:03:45;100572.96;;;22.11;87.65